LFOCLFLC

Guest
Details From LFOC - Chateaudun AB
To LFLC - Clermont-Ferrand_Auvergne
Flight Number -
Tags generated
Created
Modified
Stats Distance 156 nm / 288 km
Max Altitude 19,600 ft / 5,974 m
Waypoints 3
Social Downloads 0
Likes 0
Share VATSIM

Download

Looking for another format? Having issues loading an existing format? Contact us
Advertisement - Login to hide

Notes

Basic altitude profile: - Ascent Rate: 2500ft/min - Ascent Speed: 250kts - Cruise Altitude: 8000ft - Cruise Speed: 150kts - Descent Rate: 1500ft/min - Descent Speed: 250kts Options: - Use NATs: yes - Use PACOTS: yes - Use low airways: yes - Use high airways: no

Route

LFOC DEPOM LFLC

ID Type Via Altitude (ft/m) Position (lat/lon) Dist (leg/tot) Name
O LFOC APT - 0 / 0 48.05814 / 1.37662 - / 0 nm Chateaudun AB
DEPOM FIX - 19,600 / 5,974 47.31778 / 2.17917 55 / 55 nm
O LFLC APT - 0 / 0 45.78671 / 3.16997 100 / 155 nm Clermont-Ferrand_Auvergne

Altitude Profile

Advertisement - Login to hide

LFOC

Details ICAO LFOC
Name Chateaudun AB
Region France
Timezone Europe/Paris (UTC+2.0)
Stats Elevation 433 ft / 132 m (AMSL)
Location 48.058100° 1.376630°
Runways 1
Magnetic Variation 0.457° E

METAR

LFOC 200930Z AUTO 04011KT 6000 NSC 13/09 Q1030

Decode

TAF

Not found

Departure Runways

ID Width Length Bearing (true/mag) Surface Threshold Overrun Markings Lighting
10 148 ft / 45 m 7,532 ft / 2,296 m 98.03° / 97.58° ASPHALT 0 ft / 0 m 673 ft / 205 m APP EDGE THRESHOLD REIL-OMNI
28 148 ft / 45 m 7,532 ft / 2,296 m 278.06° / 277.60° ASPHALT 0 ft / 0 m 663 ft / 202 m APP EDGE THRESHOLD REIL-OMNI

LFLC

Details ICAO LFLC (CFE)
Name Clermont-Ferrand_Auvergne
Region France
Timezone Europe/Paris (UTC+2.0)
Stats Elevation 1,089 ft / 332 m (AMSL)
Location 45.786700° 3.169970°
Runways 1
Magnetic Variation 1.085° E

METAR

LFLC 200930Z AUTO 04005KT 010V100 8000 NSC 14/10 Q1027 BECMG BKN010

Decode

TAF

TAF LFLC 200800Z 2009/2109 12005KT 5000 OVC004 BECMG 2009/2012 8000 BKN010 BECMG 2012/2015 CAVOK BECMG 2021/2024 3000 BR NSC PROB40 TEMPO 2100/2109 0300 FG VV///

Decode

Destination Runways

ID Width Length Bearing (true/mag) Surface Threshold Overrun Markings Lighting
08 148 ft / 45 m 9,878 ft / 3,011 m 81.95° / 80.87° ASPHALT 0 ft / 0 m 0 ft / 0 m UK-PREC-APP CENTERLINE EDGE THRESHOLD REIL-OMNI
26 148 ft / 45 m 9,878 ft / 3,011 m 261.98° / 260.90° ASPHALT 476 ft / 145 m 0 ft / 0 m UK-PREC-APP CENTERLINE EDGE THRESHOLD CALVERT-ILS TDZ REIL-OMNI

Approach Navaids

Runway Type Ident Frequency Range Bearing (true/mag) Slope Elevation
26 DME CF 111.10 MHz 27 nm / 50 km - - 1,089 ft / 332 m (AMSL)
26 LOC-ILS CF 111.10 MHz 27 nm / 50 km 261.98° / 260.90 ° - 1,089 ft / 332 m (AMSL)
26 GS CF 111.10 MHz 27 nm / 50 km 262.96° / 261.88 ° 3.00° 1,089 ft / 332 m (AMSL)

Popular Alternatives